• Join FlightAware (Why Join?)
  • Login
  • US Flag 
07:03AM EDT


 

Airport Tracker/Info


-or-


 

Live Flight TrackerFlight Track Log ✈ C-GIWP ✈ 05-May-2013 ✈ KMDW - CYKZ

Flight Track Log - Related Links

Times and Time Zones

All times are in EDT time to prevent confusion due to time zone crossing. See the C-GIWP flight status page for this flight to view local times or setup timezone preferences in your user account.

Time Position Orientation Groundspeed Altitude Reporting Facility
EDT Latitude Longitude Course Direction KTS MPH feet Rate Location/Type
01:35PM 41.8000 -87.7333 37° Northeast 100 115 59,900  Level Chicago TRACON
01:36PM 41.8167 -87.7167 37° Northeast 113 130 1,500 -28,920 Descending Chicago TRACON
01:37PM 41.8167 -87.6667 90° East 121 139 2,100 27,660 Climbing Chicago TRACON
01:38PM 41.8167 -87.6167 90° East 114 131 59,600 540 Climbing Chicago TRACON
01:39PM 41.8217 -87.6156 North 116 133 2,800 -43,740 Descending Chicago Center
01:40PM 41.8197 -87.5739 94° East 113 130 3,500 540 Climbing Chicago Center
01:41PM 41.8078 -87.5347 112° Southeast 112 129 4,000 540 Climbing Chicago Center
01:42PM 41.7925 -87.4875 113° Southeast 114 131 4,700 480 Climbing Chicago Center
01:43PM 41.7850 -87.4450 103° East 116 133 5,000 120 Climbing Chicago Center
01:44PM 41.7886 -87.3914 85° East 132 152 5,000 120 Level Chicago Center
01:45PM 41.7947 -87.3381 81° East 142 163 5,300 420 Climbing Chicago Center
01:46PM 41.7972 -87.2933 86° East 126 145 5,900 540 Climbing Chicago Center
01:47PM 41.7975 -87.2406 90° East 119 137 6,500 480 Climbing Chicago Center
01:48PM 41.7978 -87.1967 89° East 118 136 7,000 420 Climbing Chicago Center
01:49PM 41.7986 -87.1528 89° East 118 136 7,400 420 Climbing Chicago Center
01:50PM 41.7983 -87.1083 90° East 119 137 7,900 420 Climbing Chicago Center
01:51PM 41.8003 -87.0617 87° East 124 143 8,300 420 Climbing Chicago Center
01:52PM 41.8033 -87.0156 85° East 124 143 8,800 600 Climbing Chicago Center
01:53PM 41.8081 -86.9614 83° East 123 142 9,600 540 Climbing Chicago Center
01:54PM 41.8106 -86.9150 86° East 124 143 10,000 420 Climbing Chicago Center
01:55PM 41.8331 -86.8761 52° Northeast 131 151 10,500 480 Climbing Chicago Center
01:56PM 41.8492 -86.8350 62° Northeast 126 145 11,000 240 Climbing Chicago Center
01:57PM 41.8631 -86.7878 68° East 137 158 11,000  Level Chicago Center
01:58PM 41.8844 -86.7236 66° East 158 182 11,000  Level Chicago Center
01:59PM 41.9017 -86.6742 65° Northeast 160 184 11,000  Level Chicago Center
02:00PM 41.9208 -86.6203 64° Northeast 160 184 11,000  Level Chicago Center
02:01PM 41.9386 -86.5714 64° Northeast 149 171 11,000  Level Chicago Center
02:02PM 41.9600 -86.5072 66° East 157 181 11,000  Level Chicago Center
02:03PM 41.9775 -86.4519 67° East 160 184 11,000  Level Chicago Center
02:04PM 41.9978 -86.3986 63° Northeast 162 186 11,000  Level Chicago Center
02:06PM 42.0156 -86.3461 65° Northeast 157 181 11,000  Level Chicago Center
02:07PM 42.0333 -86.2933 66° East 155 178 11,000  Level Chicago Center
02:08PM 42.0494 -86.2408 68° East 154 177 11,000  Level Chicago Center
02:09PM 42.0722 -86.1750 65° Northeast 159 183 11,000  Level Chicago Center
02:10PM 42.0900 -86.1217 66° East 161 185 11,000  Level Chicago Center
02:11PM 42.1094 -86.0667 65° Northeast 162 186 11,000  Level Chicago Center
02:12PM 42.1283 -86.0114 65° Northeast 161 185 11,000  Level Chicago Center
02:13PM 42.1492 -85.9500 65° Northeast 162 186 11,000  Level Chicago Center
02:14PM 42.1678 -85.8967 65° Northeast 160 184 11,000  Level Chicago Center
02:15PM 42.1861 -85.8431 65° Northeast 158 182 11,000  Level Chicago Center
02:16PM 42.2028 -85.7900 67° East 155 178 11,000  Level Chicago Center
02:17PM 42.2194 -85.7339 68° East 161 185 11,000  Level Chicago Center
02:18PM 42.2433 -85.6683 64° Northeast 163 188 11,000  Level Chicago Center
02:19PM 42.2614 -85.6133 66° East 162 186 11,000  Level Chicago Center
02:20PM 42.2786 -85.5611 66° East 157 181 11,000  Level Chicago Center
02:21PM 42.2961 -85.5061 67° East 158 182 11,000  Level Chicago Center
02:22PM 42.3142 -85.4514 66° East 159 183 11,000  Level Chicago Center
02:23PM 42.3322 -85.3967 66° East 160 184 11,000  Level Chicago Center
02:24PM 42.3511 -85.3461 63° Northeast 160 184 11,000  Level Cleveland Center
02:25PM 42.3681 -85.2911 67° East 148 170 11,000  Level Cleveland Center
02:26PM 42.3825 -85.2417 68° East 148 170 11,000  Level Cleveland Center
02:26PM 42.3900 -85.2231 61° Northeast 158 182 11,000  Level Chicago Center
02:27PM 42.4075 -85.1689 66° East 157 181 11,000  Level Chicago Center
02:28PM 42.4256 -85.1128 66° East 160 184 11,000  Level Chicago Center
02:29PM 42.4478 -85.0464 66° East 162 186 11,000  Level Chicago Center
02:30PM 42.4650 -84.9931 66° East 158 182 11,000  Level Chicago Center
02:31PM 42.4847 -84.9389 64° Northeast 160 184 11,000  Level Chicago Center
02:32PM 42.5081 -84.8844 60° Northeast 164 189 11,000  Level Chicago Center
02:33PM 42.5308 -84.8306 60° Northeast 166 191 11,100  Climbing Chicago Center
02:35PM 42.5531 -84.7772 60° Northeast 164 189 11,100  Level Chicago Center
02:36PM 42.5792 -84.7164 60° Northeast 158 182 11,100  Level Chicago Center
02:37PM 42.6008 -84.6628 61° Northeast 160 184 11,100  Level Chicago Center
02:38PM 42.6219 -84.6083 62° Northeast 163 188 11,100 -120 Level Chicago Center
02:38PM 42.6281 -84.5936 61° Northeast 154 177 11,000 -120 Descending Cleveland Center
02:39PM 42.6506 -84.5414 60° Northeast 154 177 11,000  Level Cleveland Center
02:40PM 42.6714 -84.4833 64° Northeast 154 177 11,000  Level Cleveland Center
02:41PM 42.6939 -84.4311 60° Northeast 154 177 11,000  Level Cleveland Center
02:42PM 42.7186 -84.3761 59° Northeast 154 177 11,000  Level Cleveland Center
02:43PM 42.7347 -84.3317 64° Northeast 154 177 11,000  Level Cleveland Center
02:44PM 42.7597 -84.2653 63° Northeast 154 177 11,000 -60 Level Cleveland Center
02:45PM 42.7825 -84.2100 61° Northeast 154 177 10,900  Descending Cleveland Center
02:46PM 42.8050 -84.1575 60° Northeast 154 177 11,000  Climbing Cleveland Center
02:47PM 42.8253 -84.1022 63° Northeast 154 177 11,000  Level Cleveland Center
02:48PM 42.8478 -84.0467 61° Northeast 154 177 11,000  Level Cleveland Center
02:49PM 42.8706 -83.9886 62° Northeast 154 177 11,000  Level Cleveland Center
02:50PM 42.8931 -83.9331 61° Northeast 154 177 11,000  Level Cleveland Center
02:51PM 42.9156 -83.8747 62° Northeast 159 183 11,000  Level Cleveland Center
02:52PM 42.9378 -83.8192 61° Northeast 159 183 11,000  Level Cleveland Center
02:53PM 42.9625 -83.7608 60° Northeast 159 183 11,000  Level Cleveland Center
02:54PM 42.9786 -83.7019 69° East 159 183 11,100  Climbing Cleveland Center
02:55PM 42.9947 -83.6433 69° East 159 183 11,000  Descending Cleveland Center
02:57PM 43.0292 -83.5256 68° East 159 183 11,100  Climbing Cleveland Center
02:58PM 43.0431 -83.4667 72° East 159 183 11,100  Level Cleveland Center
02:59PM 43.0592 -83.4078 69° East 164 189 11,100  Level Cleveland Center
03:01PM 43.0914 -83.2842 70° East 164 189 11,100 -60 Level Cleveland Center
03:02PM 43.1092 -83.2281 67° East 164 189 11,000  Descending Cleveland Center
03:03PM 43.1253 -83.1661 70° East 164 189 11,100  Climbing Cleveland Center
03:04PM 43.1411 -83.1069 70° East 164 189 11,100 -60 Level Cleveland Center
03:05PM 43.1572 -83.0450 70° East 164 189 11,000 -60 Descending Cleveland Center
03:06PM 43.1731 -82.9831 71° East 164 189 11,000  Level Cleveland Center
03:07PM 43.1928 -82.9267 64° Northeast 164 189 11,100  Climbing Cleveland Center
03:08PM 43.2047 -82.8617 76° East 171 197 11,100  Level Cleveland Center
03:10PM 43.2167 -82.7167 84° East 180 207 11,100  Level Toronto Center
03:11PM 43.2581 -82.6811 32° Northeast 164 189 11,100  Level Cleveland Center
03:12PM 43.2739 -82.6189 71° East 164 189 11,100  Level Cleveland Center
03:13PM 43.2894 -82.5567 71° East 164 189 11,100 -60 Level Cleveland Center
03:14PM 43.3072 -82.4947 68° East 164 189 11,000 -60 Descending Cleveland Center
03:15PM 43.3228 -82.4353 70° East 164 189 11,000  Level Cleveland Center
03:16PM 43.3383 -82.3756 70° East 164 189 11,000  Level Cleveland Center
03:17PM 43.3558 -82.3133 69° East 169 194 11,000  Level Cleveland Center
03:18PM 43.3667 -82.2500 77° East 170 196 11,100  Climbing Toronto Center
03:19PM 43.3667 -82.1833 90° East 170 196 11,100  Level Toronto Center
03:20PM 43.3833 -82.1167 71° East 170 196 11,100 -60 Level Toronto Center
03:21PM 43.4000 -82.0500 71° East 170 196 11,000 -60 Descending Toronto Center
03:22PM 43.4167 -82.0000 65° Northeast 170 196 11,000  Level Toronto Center
03:23PM 43.4333 -81.9333 71° East 170 196 11,000  Level Toronto Center
03:24PM 43.4667 -81.8667 55° Northeast 170 196 11,000  Level Toronto Center
03:25PM 43.4833 -81.8167 65° Northeast 170 196 11,000  Level Toronto Center
03:26PM 43.4833 -81.7500 90° East 160 184 11,000  Level Toronto Center
03:27PM 43.5000 -81.7000 65° Northeast 170 196 11,000  Level Toronto Center
03:28PM 43.5167 -81.6333 71° East 170 196 11,000  Level Toronto Center
03:29PM 43.5333 -81.5667 71° East 170 196 11,000  Level Toronto Center
03:30PM 43.5500 -81.5167 65° Northeast 170 196 11,000  Level Toronto Center
03:31PM 43.5667 -81.4500 71° East 170 196 11,000  Level Toronto Center
03:33PM 43.5833 -81.3167 80° East 170 196 11,000  Level Toronto Center
03:34PM 43.6000 -81.2667 65° Northeast 170 196 11,000  Level Toronto Center
03:36PM 43.6333 -81.1333 71° East 170 196 11,000  Level Toronto Center
03:37PM 43.6500 -81.0833 65° Northeast 170 196 11,000 -420 Level Toronto Center
03:38PM 43.6667 -81.0167 71° East 190 219 10,200 -720 Descending Toronto Center
03:39PM 43.6833 -80.9500 71° East 200 230 9,600 -540 Descending Toronto Center
03:41PM 43.7333 -80.7833 67° East 190 219 8,600 -540 Descending Toronto Center
03:42PM 43.7500 -80.7167 71° East 190 219 8,100 -660 Descending Toronto Center
03:43PM 43.7667 -80.6500 71° East 190 219 7,300 -720 Descending Toronto Center
03:44PM 43.7833 -80.5833 71° East 190 219 6,700 -600 Descending Toronto Center
03:45PM 43.8000 -80.5167 71° East 190 219 6,100 -600 Descending Toronto Center
03:46PM 43.8167 -80.4333 74° East 190 219 5,600 -600 Descending Toronto Center
03:47PM 43.8333 -80.3667 71° East 190 219 5,000 -300 Descending Toronto Center
03:48PM 43.8500 -80.3333 55° Northeast 180 207 5,000  Level Toronto Center
03:49PM 43.8667 -80.2500 74° East 160 184 5,000  Level Toronto Center
03:50PM 43.8667 -80.1833 90° East 160 184 5,000 -300 Level Toronto Center
03:51PM 43.8833 -80.1500 55° Northeast 170 196 4,400 -480 Descending Toronto Center
03:52PM 43.9000 -80.0667 74° East 180 207 4,100 -240 Descending Toronto Center
03:53PM 43.9000 -80.0000 90° East 170 196 4,000 -60 Descending Toronto Center
03:54PM 43.9000 -79.9500 90° East 160 184 4,000  Level Toronto Center
03:55PM 43.9167 -79.8833 71° East 150 173 4,100  Climbing Toronto Center
03:56PM 43.9167 -79.8333 90° East 150 173 4,000 -60 Descending Toronto Center
03:57PM 43.9167 -79.7667 90° East 150 173 4,000 -300 Level Toronto Center
03:58PM 43.9167 -79.7000 90° East 180 207 3,400 -600 Descending Toronto Center
03:59PM 43.9167 -79.6333 90° East 180 207 2,800 -180 Descending Toronto Center
04:00PM 43.9333 -79.5667 71° East 160 184 3,100 -60 Climbing Toronto Center
04:01PM 43.9333 -79.5167 90° East 160 184 2,700 -540 Descending Toronto Center
04:02PM 43.9167 -79.4500 109° East 170 196 2,100 -300 Descending Toronto Center
04:03PM 43.9000 -79.4000 115° Southeast 130 150 2,100 -360 Level Toronto Center
04:04PM 43.8833 -79.3833 144° Southeast 120 138 1,400 -600 Descending Toronto Center
04:05PM 43.8500 -79.3500 144° Southeast 110 127 1,000 -420 Descending Toronto Center